DHK62 EGNX-LEBL
Flight info
| Callsign | DHK62 |
|---|---|
| Flight time | 2h 3m |
| Altitude | 37000 |
| Route | SAPCO Y53 DTY UM605 SILVA Q41 COWLY UT71 VAPID UN859 SOPIL DCT BALAN DCT EVPOK DCT NARAK DCT GAI DCT LOMRA DCT ROCAN DCT PUMAL |
| Aircraft | B77L/H-SDE1E2E3FGHIJ2J3J4J5M1RWXY/LB1D1 |
Departure
| Time | 2026-04-28 15:05 |
|---|---|
| Airport | East Midlands Airport (EGNX) |
Arrival
| Time | 2026-04-28 17:08 |
|---|---|
| Airport | Josep Tarradellas Barcelona-El Prat Airport (LEBL) |
| Time | Latitude | Longitude | Altitude | Speed | Heading |
|---|---|---|---|---|---|
| 2026-04-28 14:16 | 52.82748 | -1.35036 | 312 ft | 0 kts | 179° |
| 2026-04-28 14:55 | 52.82755 | -1.35036 | 312 ft | 2 kts | 179° |
| 2026-04-28 14:55 | 52.82770 | -1.35036 | 312 ft | 2 kts | 179° |
| 2026-04-28 14:55 | 52.82785 | -1.35037 | 313 ft | 2 kts | 179° |
| 2026-04-28 14:56 | 52.82800 | -1.35035 | 313 ft | 2 kts | 201° |
| 2026-04-28 14:56 | 52.82812 | -1.35023 | 313 ft | 2 kts | 226° |
| 2026-04-28 14:56 | 52.82821 | -1.35002 | 313 ft | 2 kts | 250° |
| 2026-04-28 14:56 | 52.82824 | -1.34983 | 314 ft | 0 kts | 268° |
| 2026-04-28 14:57 | 52.82824 | -1.34977 | 314 ft | 0 kts | 270° |
| 2026-04-28 14:59 | 52.82824 | -1.34986 | 314 ft | 2 kts | 270° |
| 2026-04-28 14:59 | 52.82824 | -1.35041 | 313 ft | 5 kts | 270° |
| 2026-04-28 14:59 | 52.82823 | -1.35109 | 313 ft | 6 kts | 270° |
| 2026-04-28 14:59 | 52.82821 | -1.35193 | 313 ft | 8 kts | 268° |
| 2026-04-28 15:00 | 52.82821 | -1.35232 | 313 ft | 2 kts | 283° |
| 2026-04-28 15:00 | 52.82855 | -1.35257 | 314 ft | 6 kts | 3° |
| 2026-04-28 15:00 | 52.82885 | -1.35219 | 314 ft | 5 kts | 66° |
| 2026-04-28 15:00 | 52.82896 | -1.35085 | 315 ft | 12 kts | 87° |
| 2026-04-28 15:01 | 52.82897 | -1.34987 | 315 ft | 2 kts | 88° |
| 2026-04-28 15:01 | 52.82898 | -1.34963 | 315 ft | 1 kts | 72° |
| 2026-04-28 15:01 | 52.82911 | -1.34949 | 316 ft | 6 kts | 25° |
| 2026-04-28 15:01 | 52.82972 | -1.34938 | 317 ft | 8 kts | 0° |
| 2026-04-28 15:02 | 52.82996 | -1.34937 | 318 ft | 0 kts | 2° |
| 2026-04-28 15:02 | 52.82997 | -1.34937 | 318 ft | 1 kts | 2° |
| 2026-04-28 15:03 | 52.83033 | -1.34934 | 319 ft | 5 kts | 10° |
| 2026-04-28 15:03 | 52.83042 | -1.34930 | 319 ft | 0 kts | 24° |
| 2026-04-28 15:03 | 52.83055 | -1.34902 | 320 ft | 7 kts | 67° |
| 2026-04-28 15:03 | 52.83064 | -1.34807 | 320 ft | 7 kts | 88° |
| 2026-04-28 15:04 | 52.83064 | -1.34798 | 320 ft | 0 kts | 88° |
| 2026-04-28 15:04 | 52.83067 | -1.34590 | 319 ft | 52 kts | 89° |
| 2026-04-28 15:05 | 52.83087 | -1.33531 | 314 ft | 129 kts | 89° |
| 2026-04-28 15:05 | 52.83112 | -1.31768 | 613 ft | 164 kts | 88° |
| 2026-04-28 15:05 | 52.83123 | -1.29814 | 1214 ft | 181 kts | 83° |
| 2026-04-28 15:05 | 52.83039 | -1.27896 | 2386 ft | 164 kts | 94° |
| 2026-04-28 15:06 | 52.82872 | -1.25964 | 2854 ft | 181 kts | 92° |
| 2026-04-28 15:06 | 52.82649 | -1.23783 | 3327 ft | 204 kts | 107° |
| 2026-04-28 15:06 | 52.81845 | -1.21711 | 3848 ft | 229 kts | 128° |
| 2026-04-28 15:06 | 52.80700 | -1.19797 | 4514 ft | 244 kts | 129° |
| 2026-04-28 15:07 | 52.79501 | -1.17758 | 5275 ft | 254 kts | 130° |
| 2026-04-28 15:07 | 52.78056 | -1.16057 | 6225 ft | 263 kts | 153° |
| 2026-04-28 15:07 | 52.76231 | -1.15451 | 7062 ft | 277 kts | 177° |
| 2026-04-28 15:07 | 52.74361 | -1.16228 | 7854 ft | 292 kts | 205° |
| 2026-04-28 15:08 | 52.72708 | -1.18240 | 8672 ft | 301 kts | 218° |
| 2026-04-28 15:08 | 52.71114 | -1.20515 | 9239 ft | 307 kts | 217° |
| 2026-04-28 15:08 | 52.69463 | -1.22770 | 9342 ft | 306 kts | 215° |
| 2026-04-28 15:08 | 52.67793 | -1.24975 | 9343 ft | 307 kts | 214° |
| 2026-04-28 15:09 | 52.66131 | -1.27144 | 9343 ft | 305 kts | 214° |
| 2026-04-28 15:09 | 52.64475 | -1.29296 | 9341 ft | 305 kts | 214° |
| 2026-04-28 15:09 | 52.62792 | -1.31478 | 9345 ft | 305 kts | 214° |
| 2026-04-28 15:09 | 52.61688 | -1.32910 | 9347 ft | 305 kts | 214° |
| 2026-04-28 15:10 | 52.59434 | -1.35714 | 9332 ft | 302 kts | 205° |
| 2026-04-28 15:10 | 52.57485 | -1.36788 | 9334 ft | 295 kts | 180° |
| 2026-04-28 15:10 | 52.55465 | -1.36513 | 9332 ft | 285 kts | 158° |
| 2026-04-28 15:10 | 52.53636 | -1.35442 | 9341 ft | 281 kts | 153° |
| 2026-04-28 15:11 | 52.51773 | -1.34174 | 9936 ft | 291 kts | 152° |
| 2026-04-28 15:11 | 52.49961 | -1.32934 | 10973 ft | 286 kts | 152° |
| 2026-04-28 15:11 | 52.48074 | -1.31639 | 11472 ft | 302 kts | 152° |
| 2026-04-28 15:11 | 52.46087 | -1.30283 | 11962 ft | 319 kts | 152° |
| 2026-04-28 15:12 | 52.43985 | -1.28855 | 12478 ft | 335 kts | 152° |
| 2026-04-28 15:12 | 52.41797 | -1.27372 | 13031 ft | 350 kts | 152° |
| 2026-04-28 15:12 | 52.39510 | -1.25824 | 13575 ft | 366 kts | 152° |
| 2026-04-28 15:12 | 52.37092 | -1.24188 | 14162 ft | 380 kts | 152° |
| 2026-04-28 15:13 | 52.34649 | -1.22540 | 15012 ft | 387 kts | 152° |
| 2026-04-28 15:13 | 52.32178 | -1.20877 | 15991 ft | 391 kts | 152° |
| 2026-04-28 15:13 | 52.29637 | -1.19167 | 16892 ft | 397 kts | 151° |
| 2026-04-28 15:13 | 52.27093 | -1.17454 | 17687 ft | 405 kts | 151° |
| 2026-04-28 15:14 | 52.24492 | -1.15708 | 18645 ft | 408 kts | 150° |
| 2026-04-28 15:14 | 52.21865 | -1.13946 | 19559 ft | 411 kts | 150° |
| 2026-04-28 15:14 | 52.19193 | -1.12167 | 20338 ft | 419 kts | 151° |
| 2026-04-28 15:14 | 52.16376 | -1.10818 | 21105 ft | 434 kts | 159° |
| 2026-04-28 15:15 | 52.13414 | -1.09821 | 21924 ft | 439 kts | 160° |
| 2026-04-28 15:15 | 52.11417 | -1.09171 | 22409 ft | 443 kts | 160° |
| 2026-04-28 15:15 | 52.07359 | -1.07853 | 23379 ft | 450 kts | 159° |
| 2026-04-28 15:15 | 52.04266 | -1.06847 | 24069 ft | 456 kts | 159° |
| 2026-04-28 15:16 | 52.01165 | -1.05840 | 24808 ft | 460 kts | 159° |
| 2026-04-28 15:16 | 51.97998 | -1.04811 | 25524 ft | 464 kts | 159° |
| 2026-04-28 15:16 | 51.94835 | -1.03785 | 26218 ft | 467 kts | 159° |
| 2026-04-28 15:16 | 51.91602 | -1.02736 | 26841 ft | 473 kts | 159° |
| 2026-04-28 15:17 | 51.88424 | -1.01708 | 27419 ft | 479 kts | 160° |
| 2026-04-28 15:17 | 51.85048 | -1.01081 | 28008 ft | 495 kts | 169° |
| 2026-04-28 15:17 | 51.81618 | -1.01272 | 28535 ft | 512 kts | 178° |
| 2026-04-28 15:17 | 51.78053 | -1.02116 | 29205 ft | 518 kts | 182° |
| 2026-04-28 15:18 | 51.74602 | -1.03034 | 29948 ft | 519 kts | 181° |
| 2026-04-28 15:18 | 51.71097 | -1.03964 | 30679 ft | 519 kts | 182° |
| 2026-04-28 15:18 | 51.67583 | -1.04889 | 31432 ft | 516 kts | 182° |
| 2026-04-28 15:18 | 51.64066 | -1.05809 | 32281 ft | 510 kts | 182° |
| 2026-04-28 15:19 | 51.60543 | -1.06344 | 32972 ft | 500 kts | 174° |
| 2026-04-28 15:19 | 51.57064 | -1.06268 | 33217 ft | 501 kts | 171° |
| 2026-04-28 15:19 | 51.53614 | -1.06079 | 33261 ft | 499 kts | 171° |
| 2026-04-28 15:20 | 51.46706 | -1.05688 | 33260 ft | 496 kts | 171° |
| 2026-04-28 15:20 | 51.39855 | -1.05305 | 33247 ft | 496 kts | 172° |
| 2026-04-28 15:21 | 51.32977 | -1.04926 | 33244 ft | 494 kts | 172° |
| 2026-04-28 15:21 | 51.26169 | -1.04048 | 33243 ft | 486 kts | 161° |
| 2026-04-28 15:22 | 51.19897 | -1.00495 | 33249 ft | 478 kts | 149° |
| 2026-04-28 15:22 | 51.13872 | -0.96124 | 33235 ft | 474 kts | 149° |
| 2026-04-28 15:23 | 51.07875 | -0.91773 | 33225 ft | 476 kts | 149° |
| 2026-04-28 15:23 | 51.01851 | -0.87415 | 33213 ft | 477 kts | 150° |
| 2026-04-28 15:24 | 50.95844 | -0.83085 | 33214 ft | 474 kts | 150° |
| 2026-04-28 15:24 | 50.89835 | -0.78763 | 33208 ft | 476 kts | 150° |
| 2026-04-28 15:25 | 50.83953 | -0.74075 | 33188 ft | 468 kts | 143° |
| 2026-04-28 15:25 | 50.78482 | -0.68513 | 33183 ft | 468 kts | 143° |
| 2026-04-28 15:26 | 50.73045 | -0.62977 | 33188 ft | 468 kts | 143° |
| 2026-04-28 15:26 | 50.67592 | -0.57445 | 33185 ft | 467 kts | 143° |
| 2026-04-28 15:27 | 50.62129 | -0.51921 | 33180 ft | 468 kts | 143° |
| 2026-04-28 15:27 | 50.56642 | -0.46389 | 33172 ft | 467 kts | 144° |
| 2026-04-28 15:28 | 50.51220 | -0.40938 | 33173 ft | 467 kts | 144° |
| 2026-04-28 15:28 | 50.45723 | -0.35429 | 33162 ft | 468 kts | 144° |
| 2026-04-28 15:29 | 50.40263 | -0.29971 | 33165 ft | 468 kts | 145° |
| 2026-04-28 15:29 | 50.34779 | -0.24505 | 33165 ft | 467 kts | 146° |
| 2026-04-28 15:30 | 50.29335 | -0.19094 | 33162 ft | 467 kts | 146° |
| 2026-04-28 15:30 | 50.23854 | -0.13661 | 33151 ft | 469 kts | 146° |
| 2026-04-28 15:31 | 50.18361 | -0.08231 | 33149 ft | 470 kts | 146° |
| 2026-04-28 15:31 | 50.12838 | -0.02792 | 33147 ft | 469 kts | 147° |
| 2026-04-28 15:32 | 50.06931 | 0.01160 | 33137 ft | 472 kts | 163° |
| 2026-04-28 15:32 | 50.00590 | 0.03710 | 33131 ft | 472 kts | 165° |
| 2026-04-28 15:33 | 49.94245 | 0.06210 | 33127 ft | 471 kts | 165° |
| 2026-04-28 15:33 | 49.87898 | 0.08702 | 33141 ft | 472 kts | 165° |
| 2026-04-28 15:34 | 49.81572 | 0.11178 | 33126 ft | 467 kts | 165° |
| 2026-04-28 15:34 | 49.75301 | 0.13625 | 33108 ft | 467 kts | 165° |
| 2026-04-28 15:35 | 49.68986 | 0.16083 | 33127 ft | 467 kts | 165° |
| 2026-04-28 15:35 | 49.59610 | 0.19844 | 33109 ft | 463 kts | 165° |
| 2026-04-28 15:36 | 49.53426 | 0.22337 | 33108 ft | 463 kts | 165° |
| 2026-04-28 15:36 | 49.47234 | 0.24823 | 33093 ft | 460 kts | 165° |
| 2026-04-28 15:37 | 49.41071 | 0.27290 | 33111 ft | 461 kts | 165° |
| 2026-04-28 15:37 | 49.35928 | 0.29342 | 33090 ft | 460 kts | 166° |
| 2026-04-28 15:38 | 49.28754 | 0.32227 | 33091 ft | 459 kts | 166° |
| 2026-04-28 15:38 | 49.22589 | 0.34839 | 33075 ft | 460 kts | 166° |
| 2026-04-28 15:39 | 49.16437 | 0.37437 | 33070 ft | 460 kts | 166° |
| 2026-04-28 15:39 | 49.10279 | 0.40026 | 33063 ft | 460 kts | 166° |
| 2026-04-28 15:40 | 49.04124 | 0.42605 | 33065 ft | 461 kts | 166° |
| 2026-04-28 15:40 | 48.97930 | 0.45193 | 33076 ft | 461 kts | 167° |
| 2026-04-28 15:41 | 48.91759 | 0.47763 | 33062 ft | 459 kts | 167° |
| 2026-04-28 15:41 | 48.85622 | 0.50313 | 33039 ft | 458 kts | 167° |
| 2026-04-28 15:42 | 48.79502 | 0.52849 | 33061 ft | 457 kts | 167° |
| 2026-04-28 15:42 | 48.73364 | 0.55290 | 33047 ft | 457 kts | 168° |
| 2026-04-28 15:43 | 48.67247 | 0.57678 | 33041 ft | 457 kts | 168° |
| 2026-04-28 15:43 | 48.61071 | 0.60088 | 33059 ft | 457 kts | 169° |
| 2026-04-28 15:44 | 48.55181 | 0.62382 | 33049 ft | 456 kts | 169° |
| 2026-04-28 15:44 | 48.49087 | 0.64789 | 33045 ft | 455 kts | 168° |
| 2026-04-28 15:45 | 48.43030 | 0.67262 | 33021 ft | 453 kts | 169° |
| 2026-04-28 15:45 | 48.36966 | 0.69728 | 33028 ft | 454 kts | 169° |
| 2026-04-28 15:46 | 48.30907 | 0.72184 | 33019 ft | 451 kts | 169° |
| 2026-04-28 15:46 | 48.24881 | 0.74618 | 33018 ft | 452 kts | 169° |
| 2026-04-28 15:47 | 48.18776 | 0.77029 | 33007 ft | 451 kts | 170° |
| 2026-04-28 15:47 | 48.12711 | 0.79410 | 33029 ft | 453 kts | 171° |
| 2026-04-28 15:48 | 48.06575 | 0.80987 | 33008 ft | 444 kts | 179° |
| 2026-04-28 15:48 | 48.00418 | 0.81907 | 32986 ft | 443 kts | 179° |
| 2026-04-28 15:49 | 47.94311 | 0.82812 | 32984 ft | 443 kts | 179° |
| 2026-04-28 15:49 | 47.88194 | 0.83716 | 32992 ft | 446 kts | 179° |
| 2026-04-28 15:50 | 47.82057 | 0.84622 | 32992 ft | 443 kts | 180° |
| 2026-04-28 15:50 | 47.75908 | 0.85526 | 32989 ft | 445 kts | 180° |
| 2026-04-28 15:51 | 47.69817 | 0.86421 | 32982 ft | 444 kts | 180° |
| 2026-04-28 15:51 | 47.63685 | 0.87320 | 32983 ft | 442 kts | 180° |
| 2026-04-28 15:52 | 47.57610 | 0.88207 | 32974 ft | 443 kts | 180° |
| 2026-04-28 15:52 | 47.51511 | 0.89096 | 32978 ft | 442 kts | 180° |
| 2026-04-28 15:53 | 47.45484 | 0.89972 | 32982 ft | 441 kts | 180° |
| 2026-04-28 15:53 | 47.39403 | 0.90854 | 32977 ft | 443 kts | 180° |
| 2026-04-28 15:54 | 47.33309 | 0.91735 | 32966 ft | 443 kts | 181° |
| 2026-04-28 15:54 | 47.27275 | 0.92605 | 32962 ft | 444 kts | 180° |
| 2026-04-28 15:55 | 47.21197 | 0.93481 | 32938 ft | 443 kts | 181° |
| 2026-04-28 15:55 | 47.15114 | 0.94354 | 32945 ft | 443 kts | 181° |
| 2026-04-28 15:56 | 47.09069 | 0.95220 | 32936 ft | 441 kts | 181° |
| 2026-04-28 15:56 | 47.02966 | 0.96091 | 32942 ft | 444 kts | 181° |
| 2026-04-28 15:57 | 46.96875 | 0.96960 | 32937 ft | 442 kts | 181° |
| 2026-04-28 15:57 | 46.90721 | 0.97833 | 32928 ft | 445 kts | 181° |
| 2026-04-28 15:58 | 46.84666 | 0.98693 | 32950 ft | 443 kts | 181° |
| 2026-04-28 15:58 | 46.78576 | 0.99553 | 32952 ft | 444 kts | 181° |
| 2026-04-28 15:59 | 46.73485 | 1.00272 | 32953 ft | 443 kts | 181° |
| 2026-04-28 15:59 | 46.66348 | 1.01275 | 32971 ft | 444 kts | 181° |
| 2026-04-28 16:00 | 46.60339 | 1.02117 | 32948 ft | 444 kts | 180° |
| 2026-04-28 16:00 | 46.54284 | 1.02961 | 32947 ft | 448 kts | 180° |
| 2026-04-28 16:01 | 46.48226 | 1.04445 | 32951 ft | 450 kts | 173° |
| 2026-04-28 16:01 | 46.42246 | 1.06455 | 32948 ft | 454 kts | 173° |
| 2026-04-28 16:02 | 46.36142 | 1.08503 | 32957 ft | 453 kts | 173° |
| 2026-04-28 16:02 | 46.30079 | 1.10528 | 32944 ft | 454 kts | 173° |
| 2026-04-28 16:03 | 46.24004 | 1.12549 | 32949 ft | 455 kts | 173° |
| 2026-04-28 16:03 | 46.18019 | 1.14536 | 32948 ft | 453 kts | 173° |
| 2026-04-28 16:04 | 46.12015 | 1.16524 | 32949 ft | 454 kts | 173° |
| 2026-04-28 16:04 | 46.06942 | 1.18200 | 32946 ft | 453 kts | 173° |
| 2026-04-28 16:05 | 45.99937 | 1.20508 | 32948 ft | 454 kts | 173° |
| 2026-04-28 16:05 | 45.94028 | 1.22451 | 32950 ft | 454 kts | 173° |
| 2026-04-28 16:06 | 45.87963 | 1.24440 | 32968 ft | 454 kts | 173° |
| 2026-04-28 16:06 | 45.82200 | 1.26327 | 32965 ft | 456 kts | 173° |
| 2026-04-28 16:07 | 45.76860 | 1.28071 | 32962 ft | 457 kts | 172° |
| 2026-04-28 16:08 | 45.62380 | 1.32784 | 32945 ft | 457 kts | 172° |
| 2026-04-28 16:09 | 45.53114 | 1.35787 | 32943 ft | 457 kts | 172° |
| 2026-04-28 16:10 | 45.43813 | 1.38792 | 32935 ft | 455 kts | 172° |
| 2026-04-28 16:10 | 45.34508 | 1.41785 | 32935 ft | 457 kts | 172° |
| 2026-04-28 16:11 | 45.22087 | 1.45768 | 32936 ft | 457 kts | 172° |
| 2026-04-28 16:12 | 45.12740 | 1.48753 | 32947 ft | 458 kts | 172° |
| 2026-04-28 16:13 | 45.03412 | 1.51721 | 32957 ft | 459 kts | 172° |
| 2026-04-28 16:14 | 44.90928 | 1.55679 | 32938 ft | 459 kts | 172° |
| 2026-04-28 16:15 | 44.78469 | 1.59612 | 32929 ft | 459 kts | 171° |
| 2026-04-28 16:15 | 44.72223 | 1.61577 | 32932 ft | 459 kts | 171° |
| 2026-04-28 16:16 | 44.62885 | 1.64506 | 32936 ft | 459 kts | 171° |
| 2026-04-28 16:17 | 44.53569 | 1.67419 | 32929 ft | 458 kts | 172° |
| 2026-04-28 16:17 | 44.47328 | 1.69365 | 32932 ft | 459 kts | 172° |
| 2026-04-28 16:18 | 44.41081 | 1.71309 | 32934 ft | 459 kts | 172° |
| 2026-04-28 16:18 | 44.34880 | 1.73234 | 32930 ft | 457 kts | 172° |
| 2026-04-28 16:19 | 44.28639 | 1.75163 | 32926 ft | 458 kts | 172° |
| 2026-04-28 16:19 | 44.22372 | 1.76570 | 32928 ft | 457 kts | 175° |
| 2026-04-28 16:20 | 44.16096 | 1.77914 | 32928 ft | 457 kts | 175° |
| 2026-04-28 16:20 | 44.09804 | 1.79279 | 32927 ft | 457 kts | 175° |
| 2026-04-28 16:21 | 44.03543 | 1.80646 | 32927 ft | 456 kts | 174° |
| 2026-04-28 16:21 | 43.97256 | 1.82020 | 32933 ft | 459 kts | 174° |
| 2026-04-28 16:22 | 43.90945 | 1.82877 | 32936 ft | 458 kts | 179° |
| 2026-04-28 16:22 | 43.84578 | 1.83486 | 32940 ft | 458 kts | 179° |
| 2026-04-28 16:23 | 43.78221 | 1.84098 | 32932 ft | 458 kts | 179° |
| 2026-04-28 16:23 | 43.71872 | 1.84710 | 32934 ft | 458 kts | 179° |
| 2026-04-28 16:24 | 43.65508 | 1.85323 | 32928 ft | 458 kts | 179° |
| 2026-04-28 16:24 | 43.59090 | 1.85941 | 32927 ft | 459 kts | 179° |
| 2026-04-28 16:25 | 43.52785 | 1.86548 | 32926 ft | 461 kts | 179° |
| 2026-04-28 16:25 | 43.46352 | 1.87166 | 32919 ft | 461 kts | 179° |
| 2026-04-28 16:26 | 43.39943 | 1.87780 | 32920 ft | 462 kts | 179° |
| 2026-04-28 16:26 | 43.33540 | 1.88392 | 32915 ft | 462 kts | 179° |
| 2026-04-28 16:27 | 43.27721 | 1.88949 | 32914 ft | 463 kts | 179° |
| 2026-04-28 16:28 | 43.18972 | 1.89785 | 32913 ft | 464 kts | 179° |
| 2026-04-28 16:28 | 43.12635 | 1.90389 | 32917 ft | 464 kts | 179° |
| 2026-04-28 16:29 | 43.03055 | 1.91300 | 31490 ft | 461 kts | 178° |
| 2026-04-28 16:29 | 42.96673 | 1.91905 | 30138 ft | 457 kts | 178° |
| 2026-04-28 16:30 | 42.93660 | 1.92191 | 29738 ft | 450 kts | 178° |
| 2026-04-28 16:30 | 42.90679 | 1.92474 | 29291 ft | 445 kts | 179° |
| 2026-04-28 16:30 | 42.87646 | 1.92760 | 28805 ft | 446 kts | 178° |
| 2026-04-28 16:30 | 42.84580 | 1.93047 | 28314 ft | 455 kts | 178° |
| 2026-04-28 16:31 | 42.81525 | 1.93335 | 27818 ft | 453 kts | 178° |
| 2026-04-28 16:31 | 42.78560 | 1.93615 | 27322 ft | 449 kts | 178° |
| 2026-04-28 16:31 | 42.75502 | 1.93904 | 26811 ft | 444 kts | 178° |
| 2026-04-28 16:31 | 42.72436 | 1.94192 | 26288 ft | 439 kts | 178° |
| 2026-04-28 16:32 | 42.69427 | 1.94475 | 25763 ft | 434 kts | 178° |
| 2026-04-28 16:32 | 42.63491 | 1.95303 | 24708 ft | 426 kts | 173° |
| 2026-04-28 16:32 | 42.60566 | 1.95932 | 24171 ft | 422 kts | 173° |
| 2026-04-28 16:33 | 42.57679 | 1.96548 | 23643 ft | 417 kts | 173° |
| 2026-04-28 16:33 | 42.55794 | 1.96945 | 23295 ft | 414 kts | 173° |
| 2026-04-28 16:33 | 42.52042 | 1.97724 | 22611 ft | 409 kts | 174° |
| 2026-04-28 16:33 | 42.49251 | 1.98298 | 22084 ft | 406 kts | 174° |
| 2026-04-28 16:34 | 42.46446 | 1.98871 | 21546 ft | 403 kts | 174° |
| 2026-04-28 16:34 | 42.43688 | 1.99431 | 21020 ft | 399 kts | 174° |
| 2026-04-28 16:34 | 42.40959 | 1.99984 | 20674 ft | 391 kts | 174° |
| 2026-04-28 16:34 | 42.38312 | 2.00519 | 20580 ft | 377 kts | 174° |
| 2026-04-28 16:35 | 42.35754 | 2.01026 | 20307 ft | 368 kts | 175° |
| 2026-04-28 16:35 | 42.33228 | 2.01346 | 19816 ft | 366 kts | 178° |
| 2026-04-28 16:35 | 42.30671 | 2.01608 | 19272 ft | 366 kts | 178° |
| 2026-04-28 16:35 | 42.28154 | 2.01829 | 18795 ft | 363 kts | 179° |
| 2026-04-28 16:36 | 42.25646 | 2.02013 | 18341 ft | 360 kts | 179° |
| 2026-04-28 16:36 | 42.23145 | 2.02159 | 17887 ft | 358 kts | 180° |
| 2026-04-28 16:36 | 42.20684 | 2.02266 | 17416 ft | 355 kts | 180° |
| 2026-04-28 16:36 | 42.18196 | 2.02338 | 16959 ft | 353 kts | 181° |
| 2026-04-28 16:37 | 42.15767 | 2.02371 | 16522 ft | 350 kts | 181° |
| 2026-04-28 16:37 | 42.13323 | 2.02432 | 16084 ft | 348 kts | 175° |
| 2026-04-28 16:37 | 42.10997 | 2.03130 | 15974 ft | 347 kts | 161° |
| 2026-04-28 16:38 | 42.06955 | 2.06798 | 15967 ft | 356 kts | 137° |
| 2026-04-28 16:38 | 42.05192 | 2.09131 | 15962 ft | 356 kts | 137° |
| 2026-04-28 16:38 | 42.03461 | 2.11437 | 15947 ft | 354 kts | 137° |
| 2026-04-28 16:38 | 42.01734 | 2.13735 | 15715 ft | 349 kts | 137° |
| 2026-04-28 16:39 | 41.99998 | 2.16045 | 15188 ft | 351 kts | 137° |
| 2026-04-28 16:39 | 41.98274 | 2.18335 | 14669 ft | 351 kts | 136° |
| 2026-04-28 16:39 | 41.96552 | 2.20621 | 14285 ft | 347 kts | 136° |
| 2026-04-28 16:39 | 41.94857 | 2.22870 | 13878 ft | 343 kts | 136° |
| 2026-04-28 16:40 | 41.93164 | 2.25115 | 13469 ft | 340 kts | 136° |
| 2026-04-28 16:40 | 41.91499 | 2.27320 | 13059 ft | 338 kts | 136° |
| 2026-04-28 16:40 | 41.89824 | 2.29536 | 12646 ft | 336 kts | 136° |
| 2026-04-28 16:40 | 41.88154 | 2.31745 | 12169 ft | 335 kts | 136° |
| 2026-04-28 16:41 | 41.86510 | 2.33917 | 11744 ft | 334 kts | 136° |
| 2026-04-28 16:41 | 41.84885 | 2.36062 | 11379 ft | 329 kts | 136° |
| 2026-04-28 16:41 | 41.83266 | 2.38199 | 11032 ft | 325 kts | 136° |
| 2026-04-28 16:41 | 41.81694 | 2.40271 | 10634 ft | 323 kts | 136° |
| 2026-04-28 16:42 | 41.80114 | 2.42352 | 10225 ft | 321 kts | 136° |
| 2026-04-28 16:42 | 41.78550 | 2.44411 | 9917 ft | 306 kts | 136° |
| 2026-04-28 16:42 | 41.77076 | 2.46350 | 9727 ft | 290 kts | 136° |
| 2026-04-28 16:42 | 41.75668 | 2.48202 | 9509 ft | 283 kts | 136° |
| 2026-04-28 16:43 | 41.74270 | 2.50037 | 9173 ft | 282 kts | 136° |
| 2026-04-28 16:43 | 41.72867 | 2.51878 | 8822 ft | 281 kts | 136° |
| 2026-04-28 16:43 | 41.71485 | 2.53689 | 8486 ft | 280 kts | 136° |
| 2026-04-28 16:43 | 41.70105 | 2.55497 | 8147 ft | 279 kts | 136° |
| 2026-04-28 16:44 | 41.68726 | 2.57301 | 7961 ft | 275 kts | 136° |
| 2026-04-28 16:44 | 41.67352 | 2.59098 | 7958 ft | 279 kts | 136° |
| 2026-04-28 16:44 | 41.65842 | 2.60676 | 7933 ft | 277 kts | 155° |
| 2026-04-28 16:44 | 41.63985 | 2.61268 | 7800 ft | 272 kts | 180° |
| 2026-04-28 16:45 | 41.62151 | 2.60729 | 7336 ft | 275 kts | 207° |
| 2026-04-28 16:45 | 41.60588 | 2.59301 | 7014 ft | 274 kts | 218° |
| 2026-04-28 16:45 | 41.59157 | 2.57652 | 6757 ft | 271 kts | 220° |
| 2026-04-28 16:45 | 41.57761 | 2.55980 | 6388 ft | 272 kts | 221° |
| 2026-04-28 16:46 | 41.56345 | 2.54279 | 5906 ft | 277 kts | 221° |
| 2026-04-28 16:46 | 41.54899 | 2.52545 | 5418 ft | 282 kts | 220° |
| 2026-04-28 16:46 | 41.53446 | 2.50804 | 4924 ft | 286 kts | 220° |
| 2026-04-28 16:46 | 41.51961 | 2.49027 | 4422 ft | 288 kts | 220° |
| 2026-04-28 16:47 | 41.50475 | 2.47249 | 3913 ft | 291 kts | 220° |
| 2026-04-28 16:47 | 41.48964 | 2.45443 | 3394 ft | 285 kts | 220° |
| 2026-04-28 16:47 | 41.47533 | 2.43732 | 3025 ft | 275 kts | 220° |
| 2026-04-28 16:47 | 41.46137 | 2.42065 | 2991 ft | 267 kts | 220° |
| 2026-04-28 16:48 | 41.44770 | 2.40435 | 2970 ft | 261 kts | 220° |
| 2026-04-28 16:48 | 41.43439 | 2.38848 | 2967 ft | 253 kts | 220° |
| 2026-04-28 16:48 | 41.42152 | 2.37313 | 2970 ft | 243 kts | 219° |
| 2026-04-28 16:48 | 41.40891 | 2.35812 | 2973 ft | 240 kts | 219° |
| 2026-04-28 16:49 | 41.39650 | 2.34336 | 2977 ft | 240 kts | 219° |
| 2026-04-28 16:49 | 41.38428 | 2.32824 | 2977 ft | 241 kts | 227° |
| 2026-04-28 16:49 | 41.37571 | 2.30928 | 2977 ft | 242 kts | 242° |
| 2026-04-28 16:49 | 41.36887 | 2.28932 | 2974 ft | 235 kts | 244° |
| 2026-04-28 16:50 | 41.36237 | 2.26992 | 2976 ft | 226 kts | 243° |
| 2026-04-28 16:50 | 41.35601 | 2.25115 | 2977 ft | 223 kts | 243° |
| 2026-04-28 16:50 | 41.34965 | 2.23244 | 2976 ft | 221 kts | 243° |
| 2026-04-28 16:50 | 41.34346 | 2.21352 | 2820 ft | 222 kts | 244° |
| 2026-04-28 16:51 | 41.33720 | 2.19497 | 2930 ft | 226 kts | 243° |
| 2026-04-28 16:51 | 41.33057 | 2.17582 | 2540 ft | 228 kts | 243° |
| 2026-04-28 16:51 | 41.32423 | 2.15740 | 2065 ft | 211 kts | 243° |
| 2026-04-28 16:51 | 41.31810 | 2.13971 | 1222 ft | 220 kts | 242° |
| 2026-04-28 16:52 | 41.31171 | 2.12153 | 636 ft | 207 kts | 244° |
| 2026-04-28 16:52 | 41.30640 | 2.10544 | 825 ft | 184 kts | 244° |
| 2026-04-28 16:52 | 41.30088 | 2.09016 | 995 ft | 185 kts | 239° |
| 2026-04-28 16:52 | 41.29390 | 2.07442 | 1242 ft | 212 kts | 237° |
| 2026-04-28 16:53 | 41.28611 | 2.05749 | 1910 ft | 221 kts | 236° |
| 2026-04-28 16:53 | 41.27883 | 2.03952 | 2582 ft | 231 kts | 245° |
| 2026-04-28 16:53 | 41.27253 | 2.01920 | 2955 ft | 253 kts | 246° |
| 2026-04-28 16:53 | 41.26523 | 1.99569 | 2993 ft | 295 kts | 246° |
| 2026-04-28 16:54 | 41.25644 | 1.96929 | 2961 ft | 320 kts | 243° |
| 2026-04-28 16:54 | 41.24740 | 1.94413 | 2967 ft | 288 kts | 243° |
| 2026-04-28 16:54 | 41.23920 | 1.92133 | 2972 ft | 261 kts | 243° |
| 2026-04-28 16:54 | 41.23175 | 1.90045 | 2981 ft | 237 kts | 243° |
| 2026-04-28 16:55 | 41.22407 | 1.88272 | 2956 ft | 209 kts | 223° |
| 2026-04-28 16:55 | 41.21244 | 1.87431 | 2949 ft | 178 kts | 184° |
| 2026-04-28 16:55 | 41.20001 | 1.87788 | 3009 ft | 207 kts | 154° |
| 2026-04-28 16:55 | 41.18700 | 1.88659 | 2981 ft | 212 kts | 152° |
| 2026-04-28 16:56 | 41.17370 | 1.89582 | 2976 ft | 216 kts | 152° |
| 2026-04-28 16:56 | 41.16023 | 1.90516 | 2979 ft | 216 kts | 152° |
| 2026-04-28 16:56 | 41.14824 | 1.91703 | 2959 ft | 216 kts | 126° |
| 2026-04-28 16:56 | 41.14313 | 1.93538 | 2957 ft | 216 kts | 92° |
| 2026-04-28 16:57 | 41.14660 | 1.95455 | 2967 ft | 220 kts | 65° |
| 2026-04-28 16:57 | 41.15412 | 1.97271 | 2970 ft | 223 kts | 62° |
| 2026-04-28 16:57 | 41.16199 | 1.99082 | 2975 ft | 231 kts | 62° |
| 2026-04-28 16:57 | 41.17008 | 2.00939 | 2969 ft | 235 kts | 62° |
| 2026-04-28 16:58 | 41.17823 | 2.02810 | 2972 ft | 235 kts | 62° |
| 2026-04-28 16:58 | 41.18635 | 2.04677 | 2968 ft | 235 kts | 62° |
| 2026-04-28 16:58 | 41.19458 | 2.06571 | 2968 ft | 235 kts | 62° |
| 2026-04-28 16:58 | 41.20273 | 2.08445 | 2965 ft | 234 kts | 62° |
| 2026-04-28 16:59 | 41.21091 | 2.10330 | 2967 ft | 236 kts | 62° |
| 2026-04-28 16:59 | 41.21903 | 2.12203 | 2968 ft | 236 kts | 62° |
| 2026-04-28 16:59 | 41.22716 | 2.14083 | 2968 ft | 236 kts | 62° |
| 2026-04-28 16:59 | 41.23540 | 2.15983 | 2969 ft | 236 kts | 62° |
| 2026-04-28 17:00 | 41.24363 | 2.17881 | 2968 ft | 236 kts | 62° |
| 2026-04-28 17:00 | 41.25178 | 2.19759 | 2970 ft | 236 kts | 62° |
| 2026-04-28 17:00 | 41.25995 | 2.21646 | 2970 ft | 237 kts | 62° |
| 2026-04-28 17:00 | 41.26823 | 2.23557 | 2972 ft | 241 kts | 62° |
| 2026-04-28 17:01 | 41.27659 | 2.25488 | 2969 ft | 242 kts | 62° |
| 2026-04-28 17:01 | 41.28502 | 2.27427 | 2970 ft | 241 kts | 62° |
| 2026-04-28 17:01 | 41.29347 | 2.29376 | 2970 ft | 242 kts | 62° |
| 2026-04-28 17:01 | 41.30187 | 2.31304 | 2969 ft | 242 kts | 62° |
| 2026-04-28 17:02 | 41.31032 | 2.33247 | 2968 ft | 242 kts | 62° |
| 2026-04-28 17:02 | 41.31873 | 2.35183 | 2973 ft | 241 kts | 62° |
| 2026-04-28 17:02 | 41.32711 | 2.37117 | 2964 ft | 242 kts | 62° |
| 2026-04-28 17:02 | 41.33570 | 2.39038 | 2953 ft | 242 kts | 54° |
| 2026-04-28 17:03 | 41.36574 | 2.40925 | 2317 ft | 261 kts | 356° |
| 2026-04-28 17:03 | 41.38297 | 2.40174 | 1979 ft | 261 kts | 324° |
| 2026-04-28 17:03 | 41.39468 | 2.38423 | 1953 ft | 251 kts | 294° |
| 2026-04-28 17:04 | 41.39325 | 2.34072 | 1973 ft | 243 kts | 243° |
| 2026-04-28 17:04 | 41.38623 | 2.32020 | 1966 ft | 243 kts | 245° |
| 2026-04-28 17:05 | 41.36993 | 2.28192 | 1961 ft | 228 kts | 243° |
| 2026-04-28 17:05 | 41.36393 | 2.26282 | 1969 ft | 214 kts | 245° |
| 2026-04-28 17:05 | 41.35746 | 2.24548 | 1972 ft | 207 kts | 239° |
| 2026-04-28 17:06 | 41.34384 | 2.21349 | 1801 ft | 194 kts | 236° |
| 2026-04-28 17:06 | 41.33793 | 2.19812 | 1553 ft | 176 kts | 244° |
| 2026-04-28 17:06 | 41.32851 | 2.17011 | 1122 ft | 161 kts | 243° |
| 2026-04-28 17:07 | 41.32389 | 2.15655 | 908 ft | 160 kts | 243° |
| 2026-04-28 17:07 | 41.31926 | 2.14307 | 693 ft | 157 kts | 243° |
| 2026-04-28 17:07 | 41.31480 | 2.13004 | 479 ft | 155 kts | 243° |
| 2026-04-28 17:07 | 41.31033 | 2.11701 | 275 ft | 154 kts | 243° |
| 2026-04-28 17:08 | 41.30592 | 2.10417 | 60 ft | 152 kts | 243° |
| 2026-04-28 17:08 | 41.30186 | 2.09253 | 23 ft | 118 kts | 245° |
| 2026-04-28 17:08 | 41.29911 | 2.08441 | 29 ft | 74 kts | 245° |
| 2026-04-28 17:08 | 41.29767 | 2.07988 | 29 ft | 38 kts | 253° |
| 2026-04-28 17:09 | 41.29754 | 2.07751 | 29 ft | 15 kts | 274° |
| 2026-04-28 17:09 | 41.29775 | 2.07649 | 28 ft | 9 kts | 316° |
| 2026-04-28 17:09 | 41.29777 | 2.07646 | 28 ft | 0 kts | 315° |
| 2026-04-28 17:10 | 41.29788 | 2.07634 | 28 ft | 9 kts | 325° |
| 2026-04-28 17:10 | 41.29812 | 2.07611 | 29 ft | 1 kts | 324° |
| 2026-04-28 17:10 | 41.29846 | 2.07590 | 29 ft | 2 kts | 334° |
| 2026-04-28 17:10 | 41.29851 | 2.07572 | 29 ft | 3 kts | 268° |
| 2026-04-28 17:11 | 41.29826 | 2.07472 | 27 ft | 16 kts | 246° |
| 2026-04-28 17:11 | 41.29778 | 2.07332 | 26 ft | 16 kts | 246° |
| 2026-04-28 17:11 | 41.29733 | 2.07199 | 27 ft | 15 kts | 245° |
| 2026-04-28 17:11 | 41.29693 | 2.07081 | 29 ft | 12 kts | 245° |
| 2026-04-28 17:12 | 41.29658 | 2.06981 | 31 ft | 11 kts | 246° |
| 2026-04-28 17:12 | 41.29626 | 2.06890 | 32 ft | 10 kts | 245° |
| 2026-04-28 17:12 | 41.29615 | 2.06849 | 32 ft | 2 kts | 282° |
| 2026-04-28 17:12 | 41.29637 | 2.06823 | 33 ft | 4 kts | 328° |
| 2026-04-28 17:13 | 41.29649 | 2.06814 | 33 ft | 0 kts | 329° |
| 2026-04-28 17:13 | 41.29649 | 2.06813 | 33 ft | 0 kts | 329° |
| 2026-04-28 17:13 | 41.29668 | 2.06796 | 34 ft | 6 kts | 323° |
| 2026-04-28 17:13 | 41.29688 | 2.06775 | 34 ft | 0 kts | 320° |
| 2026-04-28 17:14 | 41.29709 | 2.06752 | 35 ft | 2 kts | 320° |
| 2026-04-28 17:14 | 41.29733 | 2.06718 | 35 ft | 6 kts | 305° |
| 2026-04-28 17:14 | 41.29740 | 2.06678 | 35 ft | 2 kts | 261° |
| 2026-04-28 17:14 | 41.29731 | 2.06641 | 35 ft | 5 kts | 249° |
| 2026-04-28 17:15 | 41.29719 | 2.06602 | 35 ft | 3 kts | 245° |
| 2026-04-28 17:15 | 41.29711 | 2.06580 | 35 ft | 1 kts | 245° |
| 2026-04-28 17:15 | 41.29709 | 2.06575 | 35 ft | 0 kts | 245° |